Time;durP1;ratioP1;P1;durP2;ratioP2;P2;SDS_P1;SDS_P2;PMS_P1;PMS_P2;Temp;Humidity;BMP_temperature;BMP_pressure;BME280_temperature;BME280_humidity;BME280_pressure;Samples;Min_cycle;Max_cycle;Signal;HPM_P1;HPM_P2
2022/07/03 00:01:54;;;;;;;1.50;1.40;;;15.60;99.90;;;;;;484179;245;28814;-69
2022/07/03 00:03:56;;;;;;;1.50;1.50;;;15.60;99.90;;;;;;484167;245;28752;-69
2022/07/03 00:05:57;;;;;;;1.47;1.47;;;15.70;99.90;;;;;;484138;245;28863;-70
2022/07/03 00:07:58;;;;;;;1.30;1.30;;;15.70;99.90;;;;;;484134;245;29294;-70
2022/07/03 00:09:59;;;;;;;1.20;1.20;;;15.60;99.90;;;;;;484200;245;29328;-70
2022/07/03 00:12:01;;;;;;;1.23;1.23;;;15.60;99.90;;;;;;484206;245;29662;-70
2022/07/03 00:14:02;;;;;;;1.53;1.43;;;15.60;99.90;;;;;;484120;245;28828;-69
2022/07/03 00:16:03;;;;;;;1.73;1.30;;;15.60;99.90;;;;;;485025;242;28800;-70
2022/07/03 00:18:04;;;;;;;1.80;1.70;;;15.60;99.90;;;;;;473678;242;28860;-72
2022/07/03 00:20:06;;;;;;;1.40;1.30;;;15.40;99.90;;;;;;476457;246;28937;-70
2022/07/03 00:22:07;;;;;;;1.60;1.50;;;15.30;99.90;;;;;;472213;250;28931;-69
2022/07/03 00:24:08;;;;;;;1.30;1.30;;;15.20;99.90;;;;;;472135;252;28945;-69
2022/07/03 00:26:09;;;;;;;1.80;1.67;;;15.10;99.90;;;;;;472329;245;28931;-70
2022/07/03 00:28:11;;;;;;;1.20;1.20;;;15.10;99.90;;;;;;474628;247;28997;-69
2022/07/03 00:30:12;;;;;;;1.53;1.43;;;15.20;99.90;;;;;;474385;247;28876;-69
2022/07/03 00:32:13;;;;;;;1.90;1.30;;;15.20;99.90;;;;;;472207;250;29384;-70
2022/07/03 00:34:14;;;;;;;1.50;1.40;;;15.20;99.90;;;;;;472189;250;29329;-69
2022/07/03 00:36:16;;;;;;;1.40;1.40;;;15.30;99.90;;;;;;472217;250;29300;-70
2022/07/03 00:38:17;;;;;;;1.50;1.50;;;15.20;99.90;;;;;;472149;250;29409;-69
2022/07/03 00:40:18;;;;;;;1.80;1.70;;;15.20;99.90;;;;;;472217;250;28808;-69
2022/07/03 00:42:19;;;;;;;1.70;1.60;;;15.20;99.90;;;;;;472209;250;29010;-69
2022/07/03 00:44:21;;;;;;;1.30;1.20;;;15.20;99.90;;;;;;472094;252;28827;-69
2022/07/03 00:46:22;;;;;;;1.90;1.80;;;15.20;99.90;;;;;;472213;250;28987;-69
2022/07/03 00:48:23;;;;;;;1.40;1.40;;;15.10;99.90;;;;;;472193;250;28805;-69
2022/07/03 00:50:24;;;;;;;1.40;1.40;;;15.10;99.90;;;;;;472191;250;28919;-69
2022/07/03 00:52:26;;;;;;;1.30;1.30;;;15.00;99.90;;;;;;472235;250;28879;-70
2022/07/03 00:54:27;;;;;;;1.77;1.40;;;15.00;99.90;;;;;;472177;250;29038;-70
2022/07/03 00:56:28;;;;;;;1.60;1.50;;;15.10;99.90;;;;;;472229;250;29495;-70
2022/07/03 00:58:29;;;;;;;1.77;1.67;;;15.00;99.90;;;;;;472185;252;29328;-69
2022/07/03 01:00:31;;;;;;;1.50;1.40;;;15.10;99.90;;;;;;472183;250;29388;-70
2022/07/03 01:02:32;;;;;;;1.40;1.30;;;15.10;99.90;;;;;;472222;250;29492;-70
2022/07/03 01:04:33;;;;;;;1.60;1.50;;;15.20;99.90;;;;;;472239;250;28864;-70
2022/07/03 01:06:34;;;;;;;1.30;1.30;;;15.10;99.90;;;;;;472069;252;28902;-70
2022/07/03 01:08:36;;;;;;;2.03;1.47;;;15.10;99.90;;;;;;472233;250;28989;-69
2022/07/03 01:10:37;;;;;;;1.30;1.30;;;15.00;99.90;;;;;;472178;250;28924;-69
2022/07/03 01:12:38;;;;;;;1.43;1.33;;;14.90;99.90;;;;;;472230;250;29190;-73
2022/07/03 01:14:40;;;;;;;1.60;1.50;;;14.90;99.90;;;;;;472196;250;29319;-69
2022/07/03 01:16:41;;;;;;;1.40;1.30;;;14.90;99.90;;;;;;472178;250;29471;-70
2022/07/03 01:18:42;;;;;;;1.40;1.40;;;14.90;99.90;;;;;;472170;250;29307;-69
2022/07/03 01:20:43;;;;;;;1.30;1.30;;;14.90;99.90;;;;;;472200;250;29350;-69
2022/07/03 01:22:44;;;;;;;1.60;1.50;;;14.90;99.90;;;;;;472195;250;29008;-72
2022/07/03 01:24:46;;;;;;;1.40;1.40;;;14.90;99.90;;;;;;472192;250;28910;-69
2022/07/03 01:26:47;;;;;;;1.77;1.67;;;14.90;99.90;;;;;;472172;250;28839;-70
2022/07/03 01:28:49;;;;;;;1.50;1.50;;;15.00;99.90;;;;;;472200;250;28890;-69
2022/07/03 01:30:49;;;;;;;1.53;1.50;;;14.90;99.90;;;;;;472157;250;28784;-69
2022/07/03 01:32:51;;;;;;;1.70;1.60;;;14.80;99.90;;;;;;472167;250;28827;-70
2022/07/03 01:34:52;;;;;;;1.50;1.40;;;14.80;99.90;;;;;;472153;249;29008;-69
2022/07/03 01:36:53;;;;;;;1.77;1.67;;;14.70;99.90;;;;;;472107;252;28985;-69
2022/07/03 01:38:54;;;;;;;1.80;1.70;;;14.80;99.90;;;;;;472155;250;29460;-70
2022/07/03 01:40:56;;;;;;;1.97;1.87;;;14.80;99.90;;;;;;472178;250;29359;-69
2022/07/03 01:42:57;;;;;;;1.80;1.70;;;14.80;99.90;;;;;;472173;250;29384;-72
2022/07/03 01:44:58;;;;;;;2.00;1.90;;;14.70;99.90;;;;;;472203;250;29337;-69
2022/07/03 01:46:59;;;;;;;1.80;1.70;;;14.70;99.90;;;;;;472145;250;28907;-70
2022/07/03 01:49:01;;;;;;;1.70;1.60;;;14.80;99.90;;;;;;472169;250;29007;-69
2022/07/03 01:51:02;;;;;;;1.77;1.67;;;14.80;99.90;;;;;;472187;250;28572;-70
2022/07/03 01:53:03;;;;;;;1.80;1.70;;;14.80;99.90;;;;;;472108;252;28515;-71
2022/07/03 01:55:04;;;;;;;1.83;1.73;;;14.80;99.90;;;;;;472183;250;28962;-69
2022/07/03 01:57:06;;;;;;;2.00;1.90;;;14.80;99.90;;;;;;472163;250;28560;-69
2022/07/03 01:59:07;;;;;;;1.63;1.63;;;14.80;99.90;;;;;;472123;250;28679;-69
2022/07/03 02:01:08;;;;;;;1.87;1.77;;;14.80;99.90;;;;;;472186;248;28958;-69
2022/07/03 02:03:09;;;;;;;1.87;1.77;;;14.80;99.90;;;;;;472158;250;28814;-71
2022/07/03 02:05:11;;;;;;;1.80;1.70;;;14.80;99.90;;;;;;472194;250;29493;-69
2022/07/03 02:07:12;;;;;;;2.00;1.77;;;14.80;99.90;;;;;;472207;250;29443;-69
2022/07/03 02:09:13;;;;;;;1.90;1.80;;;14.90;99.90;;;;;;472178;250;30177;-69
2022/07/03 02:11:15;;;;;;;1.70;1.60;;;14.90;99.90;;;;;;472209;250;28649;-70
2022/07/03 02:13:16;;;;;;;1.97;1.87;;;14.80;99.90;;;;;;472218;250;28508;-70
2022/07/03 02:15:17;;;;;;;1.70;1.70;;;14.80;99.90;;;;;;472189;250;28976;-69
2022/07/03 02:17:18;;;;;;;1.83;1.73;;;14.80;99.90;;;;;;472225;250;28888;-69
2022/07/03 02:19:19;;;;;;;1.90;1.80;;;14.80;99.90;;;;;;472151;250;28907;-69
2022/07/03 02:21:21;;;;;;;1.90;1.80;;;14.70;99.90;;;;;;472221;250;29010;-69
2022/07/03 02:23:22;;;;;;;2.13;2.03;;;14.80;99.90;;;;;;472187;250;28845;-70
2022/07/03 02:25:23;;;;;;;1.83;1.73;;;14.90;99.90;;;;;;472192;250;28563;-69
2022/07/03 02:27:24;;;;;;;1.70;1.70;;;14.90;99.90;;;;;;472223;250;28876;-69
2022/07/03 02:29:26;;;;;;;1.60;1.50;;;14.90;99.90;;;;;;472172;250;29377;-69
2022/07/03 02:31:27;;;;;;;2.00;1.90;;;14.90;99.90;;;;;;472239;250;29328;-70
2022/07/03 02:33:28;;;;;;;1.70;1.60;;;15.00;99.90;;;;;;472256;250;29323;-70
2022/07/03 02:35:30;;;;;;;4.03;1.67;;;14.90;99.90;;;;;;472231;250;28942;-69
2022/07/03 02:37:31;;;;;;;1.37;1.37;;;14.90;99.90;;;;;;475029;245;29424;-69
2022/07/03 02:39:32;;;;;;;1.50;1.40;;;14.80;99.90;;;;;;480393;245;29551;-70
2022/07/03 02:41:33;;;;;;;1.50;1.40;;;14.80;99.90;;;;;;479464;245;29301;-69
2022/07/03 02:43:35;;;;;;;1.57;1.47;;;14.80;99.90;;;;;;472184;250;29407;-70
2022/07/03 02:45:36;;;;;;;1.50;1.40;;;14.70;99.90;;;;;;472218;250;28863;-69
2022/07/03 02:47:37;;;;;;;1.47;1.37;;;14.70;99.90;;;;;;472037;252;28895;-70
2022/07/03 02:49:38;;;;;;;1.83;1.67;;;14.70;99.90;;;;;;472106;252;28506;-72
2022/07/03 02:51:40;;;;;;;1.67;1.57;;;14.70;99.90;;;;;;472187;248;28979;-69
2022/07/03 02:53:41;;;;;;;1.80;1.70;;;14.70;99.90;;;;;;473577;245;29017;-70
2022/07/03 02:55:42;;;;;;;1.73;1.63;;;14.70;99.90;;;;;;472286;247;28798;-69
2022/07/03 02:57:43;;;;;;;1.70;1.60;;;14.80;99.90;;;;;;480336;245;28464;-69
2022/07/03 02:59:46;;;;;;;1.40;1.40;;;14.80;99.90;;;;;;480362;245;28886;-71
2022/07/03 03:01:46;;;;;;;1.80;1.70;;;14.90;99.90;;;;;;480270;247;28940;-69
2022/07/03 03:03:47;;;;;;;1.40;1.40;;;14.90;99.90;;;;;;480364;245;29358;-69
2022/07/03 03:05:48;;;;;;;1.70;1.60;;;15.00;99.90;;;;;;475796;245;29080;-69
2022/07/03 03:07:50;;;;;;;1.60;1.50;;;15.00;99.90;;;;;;472085;252;29438;-69
2022/07/03 03:09:51;;;;;;;1.70;1.53;;;15.10;99.90;;;;;;472210;252;28510;-72
2022/07/03 03:11:52;;;;;;;1.47;1.37;;;15.10;99.90;;;;;;472013;252;28833;-69
2022/07/03 03:13:53;;;;;;;1.30;1.30;;;15.10;99.90;;;;;;473428;245;28864;-70
2022/07/03 03:15:55;;;;;;;1.87;1.70;;;15.10;99.90;;;;;;479356;247;28838;-70
2022/07/03 03:17:56;;;;;;;1.60;1.50;;;15.10;99.90;;;;;;476277;245;28912;-69
2022/07/03 03:19:57;;;;;;;1.80;1.70;;;15.10;99.90;;;;;;474427;247;28611;-73
2022/07/03 03:21:59;;;;;;;1.50;1.40;;;15.00;99.90;;;;;;474174;247;29014;-70
2022/07/03 03:24:00;;;;;;;1.63;1.53;;;15.10;99.90;;;;;;472115;250;28947;-69
2022/07/03 03:26:01;;;;;;;1.50;1.40;;;15.00;99.90;;;;;;472154;252;28993;-69
2022/07/03 03:28:02;;;;;;;1.40;1.40;;;15.00;99.90;;;;;;472046;252;29330;-69
2022/07/03 03:30:06;;;;;;;1.40;1.40;;;15.00;99.90;;;;;;472187;250;29429;-72
2022/07/03 03:32:05;;;;;;;1.30;1.30;;;15.00;99.90;;;;;;472138;250;29374;-69
2022/07/03 03:34:06;;;;;;;1.57;1.47;;;15.00;99.90;;;;;;472092;252;29574;-70
2022/07/03 03:36:07;;;;;;;1.60;1.50;;;15.10;99.90;;;;;;472085;252;28533;-69
2022/07/03 03:38:08;;;;;;;1.60;1.60;;;15.10;99.90;;;;;;472197;250;28885;-72
2022/07/03 03:40:10;;;;;;;1.60;1.50;;;15.10;99.90;;;;;;472184;250;28899;-72
2022/07/03 03:42:11;;;;;;;1.47;1.37;;;15.10;99.90;;;;;;472181;250;28925;-69
2022/07/03 03:44:12;;;;;;;1.47;1.37;;;15.10;99.90;;;;;;472136;252;28924;-70
2022/07/03 03:46:14;;;;;;;1.57;1.47;;;15.10;99.90;;;;;;472218;250;28987;-69
2022/07/03 03:48:15;;;;;;;1.30;1.30;;;15.10;99.90;;;;;;472170;250;28782;-70
2022/07/03 03:50:16;;;;;;;1.20;1.20;;;15.10;99.90;;;;;;472175;250;28587;-71
2022/07/03 03:52:17;;;;;;;1.20;1.20;;;15.10;99.90;;;;;;472232;250;29355;-69
2022/07/03 03:54:18;;;;;;;1.10;1.10;;;15.10;99.90;;;;;;472136;250;29479;-69
2022/07/03 03:56:20;;;;;;;1.40;1.30;;;15.00;99.90;;;;;;472195;250;29310;-69
2022/07/03 03:58:21;;;;;;;1.20;1.20;;;15.00;99.90;;;;;;472197;250;29389;-69
2022/07/03 04:00:22;;;;;;;1.37;1.37;;;15.00;99.90;;;;;;472188;250;28904;-72
2022/07/03 04:02:23;;;;;;;1.30;1.30;;;15.00;99.90;;;;;;472220;250;28779;-69
2022/07/03 04:04:25;;;;;;;1.43;1.33;;;15.00;99.90;;;;;;472230;249;29051;-71
2022/07/03 04:06:26;;;;;;;1.43;1.40;;;14.90;99.90;;;;;;472223;247;28872;-69
2022/07/03 04:08:27;;;;;;;1.30;1.30;;;14.90;99.90;;;;;;472222;250;28807;-69
2022/07/03 04:10:28;;;;;;;1.30;1.30;;;14.80;99.90;;;;;;472184;250;28927;-70
2022/07/03 04:12:30;;;;;;;1.40;1.40;;;14.80;99.90;;;;;;472251;250;28560;-69
2022/07/03 04:14:31;;;;;;;1.60;1.50;;;14.90;99.90;;;;;;472241;250;28834;-70
2022/07/03 04:16:32;;;;;;;1.57;1.47;;;14.90;99.90;;;;;;472091;252;28578;-70
2022/07/03 04:18:33;;;;;;;1.60;1.50;;;14.90;99.90;;;;;;472201;250;29237;-70
2022/07/03 04:20:35;;;;;;;1.50;1.40;;;14.90;99.90;;;;;;472191;250;28883;-73
2022/07/03 04:22:36;;;;;;;1.67;1.57;;;15.00;99.90;;;;;;472213;250;29326;-70
2022/07/03 04:24:37;;;;;;;1.30;1.30;;;15.10;99.90;;;;;;472186;250;28919;-70
2022/07/03 04:26:38;;;;;;;1.20;1.20;;;15.10;99.90;;;;;;472161;250;28964;-70
2022/07/03 04:28:40;;;;;;;1.77;1.67;;;15.30;99.90;;;;;;472210;250;28947;-70
2022/07/03 04:30:41;;;;;;;1.33;1.30;;;15.50;99.90;;;;;;472236;250;28915;-71
2022/07/03 04:32:42;;;;;;;1.47;1.47;;;15.50;99.90;;;;;;471924;252;28865;-70
2022/07/03 04:34:43;;;;;;;1.70;1.60;;;15.60;99.90;;;;;;472125;252;28911;-71
2022/07/03 04:36:45;;;;;;;1.27;1.27;;;15.70;99.90;;;;;;472160;250;29274;-70
2022/07/03 04:38:46;;;;;;;1.30;1.30;;;15.80;99.90;;;;;;472182;250;28962;-70
2022/07/03 04:40:47;;;;;;;1.60;1.50;;;15.80;99.90;;;;;;472183;248;28932;-72
2022/07/03 04:42:48;;;;;;;1.57;1.47;;;15.80;99.90;;;;;;472163;250;29385;-70
2022/07/03 04:44:50;;;;;;;1.80;1.70;;;15.90;99.90;;;;;;472198;250;29386;-70
2022/07/03 04:46:51;;;;;;;1.90;1.80;;;15.90;99.90;;;;;;472184;252;29335;-71
2022/07/03 04:48:52;;;;;;;1.90;1.80;;;16.00;99.90;;;;;;472141;250;29352;-70
2022/07/03 04:50:53;;;;;;;1.80;1.70;;;16.00;99.90;;;;;;472197;250;28863;-71
2022/07/03 04:52:55;;;;;;;1.93;1.83;;;16.10;99.90;;;;;;472097;252;28855;-69
2022/07/03 04:54:56;;;;;;;1.40;1.40;;;16.10;99.90;;;;;;472216;250;28971;-70
2022/07/03 04:56:57;;;;;;;1.80;1.70;;;16.10;99.90;;;;;;472214;250;29525;-73
2022/07/03 04:58:58;;;;;;;1.77;1.67;;;16.20;99.90;;;;;;472170;250;29366;-70
2022/07/03 05:01:00;;;;;;;1.57;1.50;;;16.20;99.90;;;;;;472147;250;28901;-70
2022/07/03 05:03:01;;;;;;;1.60;1.60;;;16.20;99.90;;;;;;472180;250;28996;-70
2022/07/03 05:05:03;;;;;;;1.67;1.57;;;16.20;99.90;;;;;;472015;251;28912;-70
2022/07/03 05:07:03;;;;;;;1.70;1.60;;;16.30;99.90;;;;;;472182;250;29405;-72
2022/07/03 05:09:05;;;;;;;1.50;1.40;;;16.30;99.90;;;;;;472142;250;29400;-70
2022/07/03 05:11:06;;;;;;;1.60;1.60;;;16.40;99.90;;;;;;472203;250;29319;-71
2022/07/03 05:13:07;;;;;;;1.80;1.70;;;16.40;99.90;;;;;;472206;250;29432;-70
2022/07/03 05:15:08;;;;;;;1.70;1.60;;;16.50;99.90;;;;;;472136;250;28883;-70
2022/07/03 05:17:10;;;;;;;3.13;1.73;;;16.50;99.90;;;;;;472201;252;28823;-72
2022/07/03 05:19:11;;;;;;;2.03;1.93;;;16.60;99.90;;;;;;472392;247;28901;-73
2022/07/03 05:21:12;;;;;;;1.80;1.70;;;16.60;99.90;;;;;;477819;245;28947;-71
2022/07/03 05:23:13;;;;;;;1.93;1.80;;;16.60;99.90;;;;;;482921;245;28818;-70
2022/07/03 05:25:15;;;;;;;1.80;1.70;;;16.70;99.90;;;;;;480728;247;28856;-70
2022/07/03 05:27:16;;;;;;;1.33;1.33;;;16.70;99.90;;;;;;483787;245;28868;-69
2022/07/03 05:29:17;;;;;;;2.03;1.90;;;16.70;99.90;;;;;;484305;245;28756;-70
2022/07/03 05:31:18;;;;;;;1.73;1.70;;;16.80;99.90;;;;;;484262;245;29201;-71
2022/07/03 05:33:20;;;;;;;1.77;1.67;;;16.80;99.90;;;;;;484268;245;29230;-70
2022/07/03 05:35:21;;;;;;;1.60;1.50;;;16.80;99.90;;;;;;484240;245;29377;-70
2022/07/03 05:37:22;;;;;;;1.60;1.50;;;16.80;99.90;;;;;;484299;245;29363;-73
2022/07/03 05:39:33;;;;;;;1.70;1.60;;;16.80;99.90;;;;;;484295;245;28749;-70
2022/07/03 05:41:34;;;;;;;1.53;1.47;;;16.80;99.90;;;;;;483008;245;28834;-70
2022/07/03 05:43:35;;;;;;;1.63;1.63;;;16.90;99.90;;;;;;477225;249;28985;-70
2022/07/03 05:45:37;;;;;;;1.90;1.80;;;16.90;99.90;;;;;;477188;249;28946;-75
2022/07/03 05:47:38;;;;;;;1.97;1.87;;;17.00;99.90;;;;;;477230;249;29322;-70
2022/07/03 05:49:39;;;;;;;1.53;1.53;;;17.00;99.90;;;;;;477272;246;29468;-71
2022/07/03 05:51:40;;;;;;;1.50;1.40;;;17.00;99.90;;;;;;477195;249;29488;-70
2022/07/03 05:53:41;;;;;;;1.67;1.57;;;17.10;99.90;;;;;;477055;249;28903;-71
2022/07/03 05:55:43;;;;;;;1.67;1.57;;;17.10;99.90;;;;;;477212;249;28985;-71
2022/07/03 05:57:44;;;;;;;1.63;1.53;;;17.10;99.90;;;;;;477176;249;29010;-70
2022/07/03 05:59:45;;;;;;;1.60;1.50;;;17.20;99.90;;;;;;477263;249;28890;-70
2022/07/03 06:01:46;;;;;;;1.70;1.60;;;17.30;99.90;;;;;;477093;249;28955;-69
2022/07/03 06:03:48;;;;;;;1.33;1.33;;;17.30;99.90;;;;;;477662;244;28907;-70
2022/07/03 06:07:53;;;;;;;1.70;1.60;;;17.40;99.90;;;;;;487404;238;28905;-70
2022/07/03 06:09:54;;;;;;;1.83;1.73;;;17.40;99.90;;;;;;479113;245;29371;-72
2022/07/03 06:11:56;;;;;;;1.50;1.50;;;17.40;99.90;;;;;;475195;248;29275;-70
2022/07/03 06:13:57;;;;;;;1.50;1.40;;;17.50;99.90;;;;;;477025;248;29182;-72
2022/07/03 06:15:58;;;;;;;1.47;1.37;;;17.50;99.90;;;;;;476496;246;29167;-71
2022/07/03 06:17:59;;;;;;;1.60;1.50;;;17.50;99.90;;;;;;476369;250;28757;-72
2022/07/03 06:20:01;;;;;;;1.70;1.60;;;17.50;99.90;;;;;;479399;245;28724;-69
2022/07/03 06:22:02;;;;;;;1.70;1.60;;;17.60;99.90;;;;;;480180;242;28788;-69
2022/07/03 06:24:03;;;;;;;1.70;1.60;;;17.70;99.90;;;;;;478057;246;28621;-70
2022/07/03 06:26:05;;;;;;;1.77;1.67;;;17.70;99.90;;;;;;476340;250;28723;-70
2022/07/03 06:28:06;;;;;;;1.70;1.60;;;17.80;99.90;;;;;;476399;250;28640;-70
2022/07/03 06:30:07;;;;;;;1.80;1.70;;;17.80;99.90;;;;;;476340;250;29061;-71
2022/07/03 06:32:08;;;;;;;1.37;1.30;;;17.90;99.90;;;;;;476335;250;29124;-70
2022/07/03 06:34:10;;;;;;;1.70;1.60;;;18.00;99.90;;;;;;476372;250;29215;-73
2022/07/03 06:36:11;;;;;;;1.77;1.67;;;18.00;99.90;;;;;;476367;250;28598;-71
2022/07/03 06:38:12;;;;;;;1.70;1.60;;;18.10;99.90;;;;;;476374;250;28649;-70
2022/07/03 06:40:13;;;;;;;1.90;1.80;;;18.10;99.90;;;;;;478168;245;28837;-70
2022/07/03 06:42:15;;;;;;;1.50;1.40;;;18.20;99.90;;;;;;478066;245;28829;-70
2022/07/03 06:44:16;;;;;;;1.73;1.63;;;18.20;99.90;;;;;;476496;245;29128;-70
2022/07/03 06:46:17;;;;;;;1.80;1.70;;;18.30;99.90;;;;;;482195;245;28920;-70
2022/07/03 06:48:18;;;;;;;1.43;1.43;;;18.30;99.90;;;;;;481524;245;28901;-71
2022/07/03 06:50:20;;;;;;;1.50;1.40;;;18.40;99.90;;;;;;483126;246;28922;-71
2022/07/03 06:52:21;;;;;;;1.60;1.50;;;18.40;99.90;;;;;;483315;246;28879;-70
2022/07/03 06:54:22;;;;;;;1.50;1.40;;;18.40;99.90;;;;;;483297;246;29269;-72
2022/07/03 06:56:23;;;;;;;1.50;1.50;;;18.50;99.90;;;;;;483440;246;29291;-69
2022/07/03 06:58:25;;;;;;;1.40;1.40;;;18.50;99.90;;;;;;483469;246;29362;-70
2022/07/03 07:00:26;;;;;;;1.70;1.60;;;18.50;99.90;;;;;;483356;246;29435;-70
2022/07/03 07:02:27;;;;;;;1.77;1.67;;;18.60;99.90;;;;;;483464;246;28774;-70
2022/07/03 07:04:28;;;;;;;1.60;1.50;;;18.60;99.90;;;;;;483224;246;28790;-73
2022/07/03 07:06:30;;;;;;;2.00;1.90;;;18.60;99.90;;;;;;483069;246;28784;-71
2022/07/03 07:08:31;;;;;;;1.70;1.60;;;18.70;99.90;;;;;;483168;246;28897;-71
2022/07/03 07:10:32;;;;;;;1.50;1.40;;;18.80;99.90;;;;;;482677;245;28864;-70
2022/07/03 07:12:33;;;;;;;1.80;1.70;;;18.80;99.90;;;;;;480958;245;28869;-70
2022/07/03 07:14:35;;;;;;;3.03;1.47;;;18.90;99.90;;;;;;489248;242;28735;-71
2022/07/03 07:16:36;;;;;;;1.40;1.40;;;19.00;99.90;;;;;;476713;242;28743;-70
2022/07/03 07:18:37;;;;;;;1.80;1.70;;;19.00;99.90;;;;;;478905;247;29221;-71
2022/07/03 07:20:38;;;;;;;2.10;1.90;;;19.10;99.90;;;;;;475837;249;29223;-70
2022/07/03 07:22:40;;;;;;;1.70;1.60;;;19.10;99.90;;;;;;482960;242;29372;-70
2022/07/03 07:24:41;;;;;;;1.77;1.67;;;19.20;99.90;;;;;;484764;242;29249;-74
2022/07/03 07:26:42;;;;;;;1.80;1.70;;;19.20;99.90;;;;;;484486;245;28936;-71
2022/07/03 07:28:43;;;;;;;1.90;1.80;;;19.30;99.90;;;;;;483605;245;28744;-71
2022/07/03 07:30:45;;;;;;;1.90;1.80;;;19.30;99.90;;;;;;476293;249;28693;-70
2022/07/03 07:32:46;;;;;;;1.73;1.63;;;19.30;99.90;;;;;;477508;245;28861;-69
2022/07/03 07:34:47;;;;;;;1.80;1.70;;;19.30;99.90;;;;;;484623;245;28789;-72
2022/07/03 07:36:48;;;;;;;2.00;1.90;;;19.40;99.90;;;;;;484174;245;28782;-71
2022/07/03 07:38:50;;;;;;;1.53;1.47;;;19.60;99.90;;;;;;476246;247;28882;-71
2022/07/03 07:40:51;;;;;;;2.80;2.00;;;19.70;99.90;;;;;;476365;245;29378;-71
2022/07/03 07:42:52;;;;;;;2.23;2.13;;;19.60;99.90;;;;;;481912;245;29269;-70
2022/07/03 07:44:53;;;;;;;1.70;1.53;;;19.70;99.90;;;;;;484256;245;29376;-72
2022/07/03 07:46:55;;;;;;;1.80;1.70;;;19.70;99.90;;;;;;484182;245;29308;-71
2022/07/03 07:48:56;;;;;;;1.50;1.40;;;19.70;99.90;;;;;;484288;245;28893;-71
2022/07/03 07:50:57;;;;;;;5.50;1.80;;;19.90;99.90;;;;;;484239;245;28884;-70
2022/07/03 07:52:58;;;;;;;1.80;1.70;;;20.00;99.90;;;;;;484286;245;28858;-71
2022/07/03 07:55:00;;;;;;;1.50;1.50;;;20.10;99.90;;;;;;484317;245;28962;-73
2022/07/03 07:57:01;;;;;;;2.53;1.70;;;20.10;99.90;;;;;;484075;245;28902;-71
2022/07/03 07:59:02;;;;;;;1.50;1.40;;;20.10;99.90;;;;;;484332;245;28904;-70
2022/07/03 08:07:44;;;;;;;1.77;1.67;;;20.40;99.90;;;;;;472847;246;29197;-85
2022/07/03 08:09:45;;;;;;;1.60;1.50;;;20.40;99.90;;;;;;469007;239;28928;-70
2022/07/03 08:11:46;;;;;;;1.73;1.63;;;20.50;99.90;;;;;;481562;240;28614;-70
2022/07/03 08:13:48;;;;;;;1.40;1.40;;;20.50;99.90;;;;;;483460;245;30163;-71
2022/07/03 08:15:49;;;;;;;1.80;1.70;;;20.70;99.90;;;;;;500555;237;29095;-70
2022/07/03 08:17:50;;;;;;;1.63;1.40;;;20.80;99.90;;;;;;485920;244;29289;-71
2022/07/03 08:19:51;;;;;;;1.60;1.50;;;20.90;99.90;;;;;;500540;237;28841;-70
2022/07/03 08:21:53;;;;;;;1.70;1.60;;;20.90;99.90;;;;;;485932;244;28792;-71
2022/07/03 08:23:54;;;;;;;2.77;1.67;;;20.90;99.90;;;;;;500571;237;28758;-70
2022/07/03 08:25:55;;;;;;;1.60;1.50;;;20.80;99.90;;;;;;484825;242;28945;-70
2022/07/03 08:27:56;;;;;;;1.93;1.83;;;20.80;99.90;;;;;;483838;245;28733;-73
2022/07/03 08:29:58;;;;;;;1.63;1.53;;;21.10;99.90;;;;;;489790;242;28913;-72
2022/07/03 08:31:59;;;;;;;1.70;1.60;;;21.20;99.90;;;;;;489701;238;28927;-71
2022/07/03 08:34:00;;;;;;;2.03;1.80;;;21.20;99.90;;;;;;489848;242;28811;-70
2022/07/03 08:36:01;;;;;;;1.93;1.83;;;21.30;99.90;;;;;;489959;242;28806;-70
2022/07/03 08:38:03;;;;;;;1.90;1.80;;;21.10;99.90;;;;;;489961;242;29433;-71
2022/07/03 08:40:04;;;;;;;2.30;1.70;;;21.30;99.90;;;;;;490002;242;29249;-70
2022/07/03 08:42:05;;;;;;;7.03;1.67;;;21.30;99.90;;;;;;494729;238;29408;-70
2022/07/03 08:44:06;;;;;;;1.90;1.80;;;21.30;99.90;;;;;;497229;238;29464;-70
2022/07/03 08:46:08;;;;;;;1.70;1.60;;;21.20;99.90;;;;;;494815;240;28687;-70
2022/07/03 08:48:09;;;;;;;1.30;1.30;;;21.20;99.90;;;;;;486943;243;29180;-70
2022/07/03 08:50:10;;;;;;;1.63;1.50;;;21.20;99.90;;;;;;494940;240;29234;-72
2022/07/03 08:52:11;;;;;;;2.60;1.73;;;21.20;99.90;;;;;;484884;244;29336;-70
2022/07/03 08:54:13;;;;;;;1.67;1.57;;;21.20;99.90;;;;;;494324;238;28837;-75
2022/07/03 08:56:14;;;;;;;1.50;1.40;;;21.50;99.90;;;;;;490094;242;28806;-70
2022/07/03 08:58:16;;;;;;;1.40;1.30;;;21.50;99.90;;;;;;489997;242;28854;-71
2022/07/03 09:00:16;;;;;;;3.00;1.60;;;21.50;99.90;;;;;;490037;237;28826;-71
2022/07/03 09:02:18;;;;;;;1.57;1.47;;;21.70;99.90;;;;;;491116;241;28797;-70
2022/07/03 09:04:19;;;;;;;1.40;1.30;;;21.70;99.90;;;;;;493521;237;28815;-75
2022/07/03 09:06:20;;;;;;;1.40;1.30;;;21.70;99.90;;;;;;499370;237;28715;-71
2022/07/03 09:08:21;;;;;;;1.57;1.47;;;21.90;99.90;;;;;;501542;236;28720;-71
2022/07/03 09:10:23;;;;;;;1.93;1.37;;;22.10;99.90;;;;;;501283;236;29188;-72
2022/07/03 09:12:24;;;;;;;2.60;1.40;;;22.10;99.90;;;;;;501495;237;29188;-71
2022/07/03 09:14:25;;;;;;;1.50;1.40;;;22.00;99.90;;;;;;498611;236;29398;-75
2022/07/03 09:16:27;;;;;;;1.70;1.60;;;21.90;99.90;;;;;;494745;240;28709;-71
2022/07/03 09:18:28;;;;;;;1.57;1.50;;;21.90;99.90;;;;;;487786;243;28723;-71
2022/07/03 09:20:29;;;;;;;2.03;1.50;;;21.80;99.90;;;;;;486198;242;28779;-70
2022/07/03 09:22:30;;;;;;;1.30;1.20;;;21.80;99.90;;;;;;494506;240;28715;-71
2022/07/03 09:24:32;;;;;;;1.30;1.20;;;21.70;99.90;;;;;;494821;240;28731;-74
2022/07/03 09:26:33;;;;;;;2.30;1.50;;;21.90;99.90;;;;;;494941;240;28721;-71
2022/07/03 09:28:34;;;;;;;1.87;1.40;;;22.10;99.90;;;;;;494939;240;28837;-73
2022/07/03 09:30:35;;;;;;;1.50;1.40;;;22.00;99.90;;;;;;494800;240;28834;-70
2022/07/03 09:32:37;;;;;;;1.60;1.50;;;21.90;99.90;;;;;;497598;237;28757;-70
2022/07/03 09:34:38;;;;;;;1.50;1.40;;;22.10;99.90;;;;;;485815;245;29305;-73
2022/07/03 09:36:39;;;;;;;2.07;1.33;;;22.30;99.90;;;;;;501629;236;29246;-70
2022/07/03 09:38:40;;;;;;;1.83;1.57;;;22.30;99.90;;;;;;501652;237;29180;-71
2022/07/03 09:40:42;;;;;;;1.57;1.47;;;22.20;99.90;;;;;;501551;237;29299;-70
2022/07/03 09:42:43;;;;;;;1.30;1.30;;;22.10;99.90;;;;;;501677;237;28713;-71
2022/07/03 09:44:47;;;;;;;1.50;1.40;;;22.00;99.90;;;;;;501638;237;28794;-70
2022/07/03 09:46:48;;;;;;;1.50;1.40;;;22.20;99.90;;;;;;494277;237;28771;-73
2022/07/03 09:48:50;;;;;;;1.40;1.30;;;22.30;99.90;;;;;;500905;237;28816;-70
2022/07/03 09:50:51;;;;;;;2.87;1.70;;;22.20;99.90;;;;;;500792;237;28767;-70
2022/07/03 09:52:52;;;;;;;1.70;1.60;;;22.40;99.90;;;;;;500803;237;28779;-70
2022/07/03 09:54:53;;;;;;;2.13;1.50;;;22.50;99.90;;;;;;500942;237;28728;-71
2022/07/03 09:56:55;;;;;;;1.50;1.40;;;22.60;99.90;;;;;;501219;237;29676;-72
2022/07/03 09:58:56;;;;;;;2.33;1.43;;;22.60;99.90;;;;;;497235;237;29208;-70
2022/07/03 10:00:57;;;;;;;1.17;1.17;;;22.40;99.90;;;;;;501599;236;29263;-71
2022/07/03 10:02:59;;;;;;;1.50;1.40;;;22.50;99.90;;;;;;501599;237;28723;-71
2022/07/03 10:05:00;;;;;;;1.83;1.30;;;22.60;99.90;;;;;;501646;237;28798;-71
2022/07/03 10:07:01;;;;;;;1.43;1.40;;;22.60;99.90;;;;;;501641;237;28708;-71
2022/07/03 10:09:02;;;;;;;1.30;1.30;;;22.60;99.90;;;;;;501668;237;28691;-70
2022/07/03 10:11:03;;;;;;;1.60;1.50;;;22.60;99.90;;;;;;501700;237;28684;-70
2022/07/03 10:13:05;;;;;;;1.87;1.77;;;22.50;99.90;;;;;;501686;237;29097;-74
2022/07/03 10:15:06;;;;;;;1.53;1.43;;;22.60;99.90;;;;;;501652;237;28675;-70
2022/07/03 10:17:07;;;;;;;1.17;1.17;;;22.80;99.90;;;;;;501708;237;28697;-71
2022/07/03 10:19:08;;;;;;;2.60;1.53;;;22.80;99.90;;;;;;499972;237;28727;-71
2022/07/03 10:21:10;;;;;;;1.73;1.43;;;22.90;99.90;;;;;;488445;240;29364;-74
2022/07/03 10:23:11;;;;;;;1.40;1.30;;;23.10;99.90;;;;;;488846;242;29172;-76
2022/07/03 10:25:12;;;;;;;1.20;1.20;;;23.00;99.90;;;;;;493691;240;28677;-71
2022/07/03 10:27:13;;;;;;;1.57;1.47;;;23.10;99.90;;;;;;494161;240;28807;-72
2022/07/03 10:29:15;;;;;;;1.60;1.50;;;23.00;99.90;;;;;;494235;240;29295;-70
2022/07/03 10:31:16;;;;;;;1.43;1.27;;;23.20;99.90;;;;;;495874;240;29249;-71
2022/07/03 10:33:17;;;;;;;1.33;1.23;;;23.20;99.90;;;;;;489083;243;29426;-74
2022/07/03 10:35:19;;;;;;;1.10;1.10;;;23.40;99.90;;;;;;498640;238;28767;-70
2022/07/03 10:37:20;;;;;;;1.40;1.30;;;23.30;99.90;;;;;;498629;238;28781;-73
2022/07/03 10:39:21;;;;;;;1.90;1.43;;;23.40;99.90;;;;;;494995;237;28664;-72
2022/07/03 10:46:01;;;;;;;1.50;1.40;;;23.60;99.90;;;;;;495076;240;28781;-70